Terminal Aerodrome Forecast
Issued by NWS Goodland, KS

Home | Current Version | Previous Version | Text Only | Print | Product List | Glossary On
Versions: 1 2 3 4 5 6 7 8 9 10 11 12 13 14
000
FTUS43 KGLD 240500 RRA
TAFGLD
TAF
KGLD 240545Z 2406/2506 34025G38KT P6SM OVC080
     FM240800 34015G25KT P6SM -SHRA OVC050
     FM241000 34015G25KT P6SM OVC100
     FM242100 31015KT P6SM SKC
     FM250000 28010KT P6SM SKC=

USA.gov is the U.S. government's official web portal to all federal, state and local government web resources and services.